Hesdin (62) - E

Date : 02/02/2014
Distance : 4,200 km

Place Nom Licence Catégorie Club Temps min/km CN à J-60 Points Différence Nouveau CN
1 RADONDY Thomas 25199 H12 5907NO 0:42:57 10'13 2594 4343 +1749 2714
2 HUMBERTCLAUDE J-Paul 16205 H65 5909NO 0:49:00 11'40 4335 3807 -528 4306
3 URVOY Mateo 22540 H14 6203NO 0:50:03 11'55 3694 3727 +33 3698
4 SAINT-UPERY Patrick 1953 H60 9502IF 0:53:02 12'37 4514 3518 -996 4514
5 GUILLEMAIN Clément 29018 H14 6208NO 0:54:36 13'00 2476 3417 +941 2938
6 EJSMONT Jean 5597 H65 6203NO 0:56:53 13'32 3949 3280 -669 3927
7 VEROVE Apolline 24071 D14 5907NO 0:57:20 13'39 2648 3254 +606 2765
8 THOMAS louis 29016 H14 6208NO 0:58:49 14'00 0 3172 2494
9 CARON Martin 27767 H16 6205NO 0:59:05 14'04 3061 3157 +96 3085
10 GERBEAUX Marie-jeanne 22417 D60 6205NO 0:59:55 14'15 3357 3113 -244 3331
11 JANQUIN François 23972 H18 6203NO 1:03:09 15'02 3553 2954 -599 3553
12 TETU Alexandre 28691 H14 6203NO 1:05:16 15'32 1319 2858 +1539 1453
13 LEROY Odile 7216 D50 5907NO 1:06:04 15'43 3349 2824 -525 3520
14 GRESSIER Hugo 29021 H14 6208NO 1:06:14 15'46 0 2817 0
15 GERBEAUX Jean-paul 23596 H65 6205NO 1:06:45 15'53 3660 2795 -865 3609
16 FAGOT Clémence 27224 D14 6205NO 1:10:22 16'45 1667 2651 +984 2121
17 POULAIN Odile 1948 D50 5909NO 1:11:04 16'55 2695 2625 -70 2708
18 PECQUART Judicaël 28804 H14 6203NO 1:13:28 17'29 0 2539 2075
19 TORZ Agathe 10084 D21 5906NO 1:15:10 17'53 2482 0
20 FAVIER elisa 25984 D14 6208NO 1:18:16 18'38 1529 2384 +855 1672
21 TORZ-DRUON Magali 10081 D60 5906NO 1:20:23 19'08 2161 2321 +160 2280
22 SAUVAGE Elsa 11434 D21 5907NO 1:20:27 19'09 2319 0
23 JASKINA Catherine 28714 D50 6203NO 1:20:50 19'14 1713 2308 +595 1870
24 BAUD Sandrine 27612 D35 6203NO 1:22:47 19'42 1679 2253 +574 1796
25 DELCUSE Patricia 29299 D35 6205NO 1:25:30 20'21 2182 0
26 JUDAS Sylvaine 13635 D55 6208NO 1:30:05 21'26 1988 2071 +83 2043
27 BERNET-ROLLANDE Esther 24708 D14 5907NO 1:33:01 22'08 1489 2006 +517 1544
28 LAMINETTE M-Odile 17201 D50 5907NO 1:35:39 22'46 2512 1950 -562 2512
29 DURIEZ Corinne 27971 D45 6203NO 1:36:30 22'58 1293 1933 +640 1444
30 THERY Sophie 27606 D35 6203NO 1:47:42 25'38 1418 1732 +314 1504
31 LUDEWIG-JAMES Carol 15894 D75 5907NO 2:00:18 28'38 2039 1551 -488 1962
32 AGOUDJIL Abdessalem 25486 H14 5906NO 2:00:30 28'41 926 1548 +622 1036
DULARY Louise 27712 D16 6203NO pm None 2390 0 2390